Time;durP1;ratioP1;P1;durP2;ratioP2;P2;SDS_P1;SDS_P2;PMS_P1;PMS_P2;Temp;Humidity;BMP_temperature;BMP_pressure;BME280_temperature;BME280_humidity;BME280_pressure;Samples;Min_cycle;Max_cycle;Signal;HPM_P1;HPM_P2
2021/01/10 00:00:39;;;;;;;26.65;13.80;;;;;;;-2.72;77.40;96945.97;5053826;28;20044;-73
2021/01/10 00:03:06;;;;;;;29.08;14.55;;;;;;;-2.74;77.63;96945.28;5061851;28;20048;-73
2021/01/10 00:05:37;;;;;;;29.08;14.50;;;;;;;-2.76;77.33;96947.16;5036162;28;20057;-73
2021/01/10 00:08:04;;;;;;;26.67;14.00;;;;;;;-2.76;77.30;96947.16;5051553;28;20049;-73
2021/01/10 00:10:30;;;;;;;27.20;13.65;;;;;;;-2.80;77.35;96944.00;5064747;28;20059;-73
2021/01/10 00:13:01;;;;;;;29.88;15.65;;;;;;;-2.82;77.60;96937.38;5038587;28;20049;-73
2021/01/10 00:15:28;;;;;;;24.63;14.43;;;;;;;-2.84;77.44;96936.66;5046577;28;20057;-73
2021/01/10 00:17:55;;;;;;;28.17;15.07;;;;;;;-2.86;77.78;96929.91;5055576;28;20048;-73
2021/01/10 00:20:21;;;;;;;29.48;15.65;;;;;;;-2.84;77.68;96932.34;5051054;28;20049;-73
2021/01/10 00:22:54;;;;;;;27.50;14.05;;;;;;;-2.88;77.95;96934.38;5044938;28;20481;-73
2021/01/10 00:25:21;;;;;;;29.67;14.40;;;;;;;-2.86;77.69;96937.63;5046285;28;20404;-73
2021/01/10 00:27:48;;;;;;;24.20;13.35;;;;;;;-2.85;77.69;96938.44;5048592;28;20287;-73
2021/01/10 00:30:20;;;;;;;29.42;14.95;;;;;;;-2.83;77.66;96930.59;5042363;28;20060;-73
2021/01/10 00:32:54;;;;;;;26.23;13.70;;;;;;;-2.87;77.69;96928.28;5042563;28;20052;-72
2021/01/10 00:35:22;;;;;;;27.02;13.57;;;;;;;-2.88;77.46;96926.66;5049544;28;20053;-73
2021/01/10 00:37:53;;;;;;;33.85;15.35;;;;;;;-2.90;77.71;96931.09;5052124;28;20052;-76
2021/01/10 00:40:21;;;;;;;27.77;13.68;;;;;;;-2.91;77.53;96932.03;5051025;28;20048;-72
2021/01/10 00:42:47;;;;;;;32.63;14.38;;;;;;;-2.91;77.92;96936.34;5029819;28;20505;-73
2021/01/10 00:45:14;;;;;;;27.50;14.25;;;;;;;-2.90;77.90;96935.41;5047799;28;20071;-73
2021/01/10 00:47:41;;;;;;;29.50;14.60;;;;;;;-2.89;77.91;96930.16;5048412;28;20048;-73
2021/01/10 00:50:08;;;;;;;26.40;13.90;;;;;;;-2.90;78.11;96930.25;5046527;28;20041;-73
2021/01/10 00:52:34;;;;;;;29.25;13.90;;;;;;;-2.88;78.11;96936.09;5050413;28;20508;-73
2021/01/10 00:55:01;;;;;;;27.65;13.57;;;;;;;-2.88;77.79;96946.34;5051020;28;20041;-73
2021/01/10 00:57:27;;;;;;;27.45;13.82;;;;;;;-2.85;78.03;96946.13;5053528;28;20045;-73
2021/01/10 00:59:53;;;;;;;27.02;13.75;;;;;;;-2.81;78.28;96954.38;5032575;28;20045;-72
2021/01/10 01:02:20;;;;;;;28.77;14.40;;;;;;;-2.78;78.40;96952.41;5051769;28;20052;-72
2021/01/10 01:04:47;;;;;;;24.83;13.38;;;;;;;-2.75;77.93;96956.47;5046126;28;20049;-72
2021/01/10 01:07:14;;;;;;;27.58;14.18;;;;;;;-2.73;77.86;96959.72;5045699;28;20056;-72
2021/01/10 01:09:41;;;;;;;26.10;14.48;;;;;;;-2.72;78.19;96949.34;5049917;28;20045;-72
2021/01/10 01:12:08;;;;;;;24.67;12.90;;;;;;;-2.72;77.79;96953.66;5047837;28;20469;-72
2021/01/10 01:14:34;;;;;;;27.42;14.38;;;;;;;-2.73;77.98;96958.00;5052126;28;20061;-73
2021/01/10 01:17:00;;;;;;;28.88;14.45;;;;;;;-2.71;77.94;96956.13;5048997;28;20409;-72
2021/01/10 01:19:26;;;;;;;29.08;13.95;;;;;;;-2.66;77.85;96961.69;5051544;28;20385;-72
2021/01/10 01:21:53;;;;;;;28.75;14.48;;;;;;;-2.61;77.89;96963.88;5050565;28;20044;-72
2021/01/10 01:24:22;;;;;;;26.90;13.98;;;;;;;-2.59;78.00;96963.78;5051411;28;20100;-72
2021/01/10 01:26:48;;;;;;;28.98;14.63;;;;;;;-2.58;78.22;96973.09;5051013;28;20052;-73
2021/01/10 01:29:16;;;;;;;25.67;13.98;;;;;;;-2.56;77.92;96971.22;5028303;28;20039;-72
2021/01/10 01:31:42;;;;;;;30.05;15.10;;;;;;;-2.54;78.23;96971.91;5048377;28;20045;-73
2021/01/10 01:34:08;;;;;;;28.02;14.05;;;;;;;-2.54;77.91;96972.75;5046866;28;20056;-72
2021/01/10 01:36:34;;;;;;;24.35;12.70;;;;;;;-2.52;77.97;96972.59;5028718;28;20052;-72
2021/01/10 01:39:02;;;;;;;27.15;14.20;;;;;;;-2.52;77.72;96977.72;5032936;28;20048;-72
2021/01/10 01:41:34;;;;;;;23.25;12.77;;;;;;;-2.50;77.70;96981.84;5050468;28;20037;-73
2021/01/10 01:44:00;;;;;;;26.40;14.00;;;;;;;-2.51;78.02;96981.94;5048154;28;20412;-72
2021/01/10 01:46:32;;;;;;;25.05;13.45;;;;;;;-2.53;77.75;96974.34;5051576;28;20469;-73
2021/01/10 01:49:03;;;;;;;26.50;13.23;;;;;;;-2.52;78.10;96976.00;5046413;28;20046;-72
2021/01/10 01:51:30;;;;;;;26.70;13.82;;;;;;;-2.49;78.22;96978.31;5050415;28;20056;-73
2021/01/10 01:53:57;;;;;;;28.65;14.20;;;;;;;-2.47;77.82;96979.00;5050017;28;20057;-72
2021/01/10 01:56:24;;;;;;;32.63;14.65;;;;;;;-2.45;77.92;96989.16;5051147;28;20466;-72
2021/01/10 01:58:58;;;;;;;28.98;13.48;;;;;;;-2.43;77.72;96991.63;5045860;28;20045;-72
2021/01/10 02:01:27;;;;;;;27.02;12.93;;;;;;;-2.43;77.85;96995.00;5048908;28;20045;-73
2021/01/10 02:04:01;;;;;;;28.38;13.88;;;;;;;-2.46;77.67;96993.50;5041470;28;20056;-72
2021/01/10 02:06:40;;;;;;;23.90;13.20;;;;;;;-2.46;77.90;96990.09;5051755;28;20049;-73
2021/01/10 02:09:09;;;;;;;28.35;13.93;;;;;;;-2.46;77.89;96987.53;5043726;28;20049;-72
2021/01/10 02:11:38;;;;;;;26.02;13.98;;;;;;;-2.49;77.95;96977.50;5050487;28;20056;-73
2021/01/10 02:14:11;;;;;;;28.27;14.13;;;;;;;-2.51;77.72;96980.19;5040353;28;20048;-72
2021/01/10 02:16:39;;;;;;;28.77;14.20;;;;;;;-2.53;77.88;96971.78;5069578;28;20052;-72
2021/01/10 02:19:14;;;;;;;27.92;14.30;;;;;;;-2.55;77.93;96975.44;5068733;28;20052;-72
2021/01/10 02:21:43;;;;;;;25.80;12.00;;;;;;;-2.59;77.83;96972.28;5070571;28;20469;-73
2021/01/10 02:24:11;;;;;;;27.45;13.77;;;;;;;-2.61;77.72;96974.16;5077072;28;20036;-72
2021/01/10 02:26:38;;;;;;;23.48;12.75;;;;;;;-2.62;77.88;96972.53;5071029;28;20048;-72
2021/01/10 02:29:04;;;;;;;30.20;13.52;;;;;;;-2.61;77.99;96976.72;5073518;28;20036;-72
2021/01/10 02:31:37;;;;;;;28.38;13.68;;;;;;;-2.60;77.92;96978.38;5073974;28;20045;-72
2021/01/10 02:34:04;;;;;;;31.05;14.63;;;;;;;-2.60;78.08;96978.38;5068663;28;20044;-72
2021/01/10 02:36:39;;;;;;;25.95;13.45;;;;;;;-2.62;77.89;96980.25;5076443;28;20045;-72
2021/01/10 02:39:18;;;;;;;24.77;13.15;;;;;;;-2.62;78.29;96971.72;5072130;28;20060;-73
2021/01/10 02:41:53;;;;;;;24.52;12.80;;;;;;;-2.61;78.05;96973.34;5068877;28;20067;-72
2021/01/10 02:44:21;;;;;;;25.35;13.43;;;;;;;-2.62;77.94;96972.53;5069970;28;20036;-73
2021/01/10 02:46:50;;;;;;;27.25;13.35;;;;;;;-2.60;78.09;96970.66;5073445;28;20106;-73
2021/01/10 02:49:18;;;;;;;28.13;13.88;;;;;;;-2.62;77.90;96967.41;5071364;28;20427;-72
2021/01/10 02:51:45;;;;;;;25.38;12.57;;;;;;;-2.62;78.24;96962.28;5076373;28;20037;-72
2021/01/10 02:54:15;;;;;;;25.92;13.02;;;;;;;-2.62;78.04;96964.03;5071478;28;20059;-72
2021/01/10 02:56:48;;;;;;;25.15;13.02;;;;;;;-2.63;78.33;96962.38;5069967;28;20074;-73
2021/01/10 02:59:19;;;;;;;23.38;12.63;;;;;;;-2.64;78.03;96963.34;5075827;28;20052;-72
2021/01/10 03:01:47;;;;;;;26.33;12.40;;;;;;;-2.66;78.09;96964.25;5071676;28;20045;-73
2021/01/10 03:04:15;;;;;;;24.27;12.75;;;;;;;-2.67;77.97;96964.38;5058068;28;20048;-72
2021/01/10 03:06:43;;;;;;;25.80;13.02;;;;;;;-2.66;78.23;96961.69;5074519;28;20473;-72
2021/01/10 03:09:11;;;;;;;25.15;13.60;;;;;;;-2.62;78.30;96966.59;5068458;28;20485;-73
2021/01/10 03:11:40;;;;;;;26.02;13.10;;;;;;;-2.66;78.15;96959.13;5074842;28;20400;-72
2021/01/10 03:14:06;;;;;;;23.70;13.38;;;;;;;-2.68;78.31;96955.06;5061918;28;20072;-72
2021/01/10 03:16:33;;;;;;;27.10;13.57;;;;;;;-2.70;78.24;96949.22;5034104;28;20405;-72
2021/01/10 03:19:00;;;;;;;23.70;12.32;;;;;;;-2.73;78.00;96949.47;5047901;28;20041;-72
2021/01/10 03:21:26;;;;;;;24.85;13.63;;;;;;;-2.73;78.12;96947.72;5052946;28;20055;-72
2021/01/10 03:23:54;;;;;;;28.75;13.43;;;;;;;-2.74;78.12;96947.84;5052727;28;20072;-72
2021/01/10 03:26:21;;;;;;;23.73;12.52;;;;;;;-2.76;77.91;96944.59;5053240;28;20040;-73
2021/01/10 03:28:47;;;;;;;25.60;12.23;;;;;;;-2.79;78.19;96943.06;5050540;28;20052;-73
2021/01/10 03:31:14;;;;;;;24.05;11.60;;;;;;;-2.79;77.99;96937.09;5045223;28;20041;-72
2021/01/10 03:33:45;;;;;;;27.33;12.88;;;;;;;-2.80;78.40;96940.63;5029740;28;20050;-72
2021/01/10 03:36:15;;;;;;;24.58;12.25;;;;;;;-2.83;78.46;96935.72;5030913;28;20489;-72
2021/01/10 03:38:42;;;;;;;28.90;13.27;;;;;;;-2.82;78.42;96933.03;5035105;28;20063;-72
2021/01/10 03:41:09;;;;;;;22.60;11.70;;;;;;;-2.83;78.25;96936.56;5052335;28;20477;-73
2021/01/10 03:43:36;;;;;;;24.80;12.63;;;;;;;-2.86;78.52;96929.91;5046143;28;20037;-72
2021/01/10 03:46:02;;;;;;;26.83;13.27;;;;;;;-2.83;78.14;96935.72;5054264;28;20060;-72
2021/01/10 03:48:28;;;;;;;25.27;12.63;;;;;;;-2.82;78.40;96938.16;5046598;28;20050;-72
2021/01/10 03:50:55;;;;;;;26.73;13.18;;;;;;;-2.79;78.32;96934.53;5053032;28;20056;-72
2021/01/10 03:53:21;;;;;;;24.48;12.00;;;;;;;-2.80;78.23;96933.72;5034520;28;20075;-72
2021/01/10 03:55:48;;;;;;;25.92;13.55;;;;;;;-2.82;78.00;96927.09;5052358;28;20063;-73
2021/01/10 03:58:14;;;;;;;26.45;13.00;;;;;;;-2.83;78.33;96925.44;5047625;28;20056;-72
2021/01/10 04:00:40;;;;;;;26.00;12.90;;;;;;;-2.84;78.25;96926.41;5033112;28;20048;-72
2021/01/10 04:03:06;;;;;;;24.35;12.20;;;;;;;-2.88;78.30;96929.22;5053302;28;20041;-72
2021/01/10 04:05:32;;;;;;;24.92;12.13;;;;;;;-2.89;78.28;96930.16;5048744;28;20045;-72
2021/01/10 04:07:59;;;;;;;23.70;12.57;;;;;;;-2.90;78.29;96927.69;5033007;28;20404;-72
2021/01/10 04:10:25;;;;;;;24.85;12.50;;;;;;;-2.91;78.11;96926.09;5048875;28;20037;-72
2021/01/10 04:12:51;;;;;;;26.52;12.10;;;;;;;-2.93;78.33;96933.91;5033848;28;20064;-72
2021/01/10 04:15:17;;;;;;;26.25;13.02;;;;;;;-2.93;78.09;96933.91;5051645;28;20064;-72
2021/01/10 04:17:43;;;;;;;25.80;12.82;;;;;;;-2.93;78.14;96928.75;5052062;28;20045;-72
2021/01/10 04:20:10;;;;;;;23.80;12.85;;;;;;;-3.00;77.62;96935.31;5047690;28;20504;-73
2021/01/10 04:22:36;;;;;;;24.45;13.32;;;;;;;-3.02;77.97;96926.94;5035927;28;20059;-73
2021/01/10 04:25:03;;;;;;;25.88;12.63;;;;;;;-3.02;78.42;96931.22;5044086;28;20442;-74
2021/01/10 04:27:29;;;;;;;27.27;13.55;;;;;;;-3.04;78.12;96931.38;5053224;28;20037;-72
2021/01/10 04:29:55;;;;;;;21.00;12.18;;;;;;;-3.03;78.30;96927.03;5019948;28;20040;-73
2021/01/10 04:32:22;;;;;;;25.90;12.75;;;;;;;-3.02;78.36;96938.94;5044140;28;20045;-72
2021/01/10 04:34:48;;;;;;;25.45;13.80;;;;;;;-2.99;78.74;96938.69;5049291;28;20052;-72
2021/01/10 04:37:14;;;;;;;23.33;12.02;;;;;;;-2.97;78.65;96932.50;5051941;28;20481;-73
2021/01/10 04:39:40;;;;;;;26.98;13.43;;;;;;;-2.94;78.64;96939.97;5013554;28;20056;-72
2021/01/10 04:42:08;;;;;;;24.30;12.43;;;;;;;-2.93;78.66;96943.34;5052437;28;20493;-72
2021/01/10 04:44:34;;;;;;;27.08;12.77;;;;;;;-2.94;78.47;96947.69;5049134;28;20044;-72
2021/01/10 04:47:01;;;;;;;25.92;13.05;;;;;;;-2.95;78.55;96940.91;5034564;28;20051;-76
2021/01/10 04:49:28;;;;;;;24.42;12.25;;;;;;;-2.95;78.74;96942.66;5045998;28;20045;-72
2021/01/10 04:51:55;;;;;;;27.10;12.68;;;;;;;-2.96;78.60;96933.31;5051816;28;20378;-72
2021/01/10 04:54:23;;;;;;;26.00;13.20;;;;;;;-2.98;78.15;96942.88;5052558;28;20033;-72
2021/01/10 04:56:51;;;;;;;25.25;12.60;;;;;;;-3.00;78.39;96932.75;5047076;28;20054;-73
2021/01/10 04:59:18;;;;;;;22.95;11.77;;;;;;;-3.01;78.39;96935.44;5003875;28;20390;-72
2021/01/10 05:01:48;;;;;;;24.25;12.23;;;;;;;-3.00;78.06;96943.03;5005252;28;20088;-73
2021/01/10 05:04:16;;;;;;;25.95;12.80;;;;;;;-3.00;78.43;96939.63;5044857;28;20044;-72
2021/01/10 05:06:42;;;;;;;29.10;14.00;;;;;;;-3.02;78.45;96941.50;5044127;28;20056;-72
2021/01/10 05:09:09;;;;;;;25.33;12.27;;;;;;;-3.02;78.55;96938.94;5052505;28;21351;-72
2021/01/10 05:11:35;;;;;;;22.65;12.82;;;;;;;-3.00;78.42;96937.91;5050025;28;20064;-72
2021/01/10 05:14:03;;;;;;;22.83;11.70;;;;;;;-2.96;78.44;96948.72;5046294;28;20061;-72
2021/01/10 05:16:32;;;;;;;25.17;13.27;;;;;;;-2.93;78.38;96951.06;5049630;28;20033;-72
2021/01/10 05:18:59;;;;;;;28.92;13.02;;;;;;;-2.92;78.44;96955.22;5047761;28;20053;-72
2021/01/10 05:21:25;;;;;;;25.83;13.07;;;;;;;-2.91;78.23;96955.13;5043816;28;20052;-72
2021/01/10 05:23:53;;;;;;;25.77;13.20;;;;;;;-2.90;78.60;96958.50;5051751;28;20053;-73
2021/01/10 05:26:20;;;;;;;21.75;12.65;;;;;;;-2.86;78.39;96962.44;5046904;28;20481;-72
2021/01/10 05:28:49;;;;;;;25.92;12.80;;;;;;;-2.89;78.35;96962.72;5035180;28;20041;-73
2021/01/10 05:31:35;;;;;;;27.13;13.70;;;;;;;-2.90;78.25;96963.63;5030123;28;20053;-72
2021/01/10 05:34:01;;;;;;;26.67;12.57;;;;;;;-2.89;78.13;96952.44;5048963;28;20491;-72
2021/01/10 05:36:32;;;;;;;24.77;12.95;;;;;;;-2.91;78.21;96954.31;5045022;28;20056;-73
2021/01/10 05:39:21;;;;;;;24.23;12.50;;;;;;;-2.94;78.39;96954.53;5044119;28;20053;-72
2021/01/10 05:41:58;;;;;;;28.77;13.00;;;;;;;-2.93;78.29;96951.06;5049321;28;20412;-73
2021/01/10 05:44:25;;;;;;;25.55;12.70;;;;;;;-2.94;78.21;96957.09;5009565;28;20056;-72
2021/01/10 05:47:36;;;;;;;23.58;12.20;;;;;;;-2.93;78.40;96962.13;5017949;28;20053;-72
2021/01/10 05:50:13;;;;;;;28.13;13.20;;;;;;;-2.95;78.41;96961.44;5002409;28;20405;-72
2021/01/10 05:52:40;;;;;;;21.35;11.15;;;;;;;-2.99;78.30;96956.66;5052260;28;20052;-72
2021/01/10 05:55:10;;;;;;;27.08;13.45;;;;;;;-2.98;78.11;96958.28;5030382;28;20048;-73
2021/01/10 05:57:37;;;;;;;24.25;12.63;;;;;;;-2.98;78.33;96960.84;5046836;28;20063;-72
2021/01/10 06:00:05;;;;;;;22.35;12.23;;;;;;;-2.98;78.59;96960.84;5045538;28;20055;-74
2021/01/10 06:02:37;;;;;;;25.35;12.55;;;;;;;-2.95;78.42;96966.56;5050123;28;20425;-72
2021/01/10 06:05:13;;;;;;;22.83;11.75;;;;;;;-2.94;78.18;96965.63;5045239;28;20409;-72
2021/01/10 06:07:41;;;;;;;23.02;11.93;;;;;;;-2.94;78.38;96957.09;5048618;28;20060;-73
2021/01/10 06:10:09;;;;;;;22.35;11.93;;;;;;;-2.93;78.36;96969.81;5047576;28;20049;-72
2021/01/10 06:12:36;;;;;;;26.05;13.07;;;;;;;-2.93;78.19;96964.69;5043851;28;20067;-72
2021/01/10 06:15:18;;;;;;;22.95;12.00;;;;;;;-2.92;78.01;96957.81;5039921;28;20054;-72
2021/01/10 06:17:50;;;;;;;20.13;10.48;;;;;;;-2.93;78.09;96957.00;5032025;28;20052;-72
2021/01/10 06:20:23;;;;;;;23.85;12.43;;;;;;;-2.91;77.86;96956.88;5050011;28;20056;-72
2021/01/10 06:22:51;;;;;;;22.60;11.77;;;;;;;-2.92;77.80;96952.66;5044137;28;20045;-75
2021/01/10 06:25:22;;;;;;;22.30;12.38;;;;;;;-2.92;77.98;96952.66;5043425;28;20048;-72
2021/01/10 06:28:00;;;;;;;21.65;12.10;;;;;;;-2.93;77.90;96956.19;5032802;28;20143;-72
2021/01/10 06:30:30;;;;;;;24.10;12.02;;;;;;;-2.93;77.89;96951.84;5050128;28;20041;-72
2021/01/10 06:33:03;;;;;;;19.88;10.30;;;;;;;-2.94;77.50;96959.66;5047150;28;20061;-72
2021/01/10 06:35:38;;;;;;;16.65;9.02;;;;;;;-2.95;76.71;96953.72;5044773;28;20042;-73
2021/01/10 06:38:07;;;;;;;19.02;9.93;;;;;;;-2.92;77.59;96956.06;5049874;28;21655;-72
2021/01/10 06:40:35;;;;;;;19.15;9.68;;;;;;;-2.87;77.74;96963.41;5048355;28;20048;-72
2021/01/10 06:43:04;;;;;;;19.83;10.63;;;;;;;-2.83;77.59;96958.81;5047241;28;20050;-72
2021/01/10 06:45:40;;;;;;;16.38;9.73;;;;;;;-2.82;77.51;96957.91;5046031;28;20053;-72
2021/01/10 06:48:08;;;;;;;22.83;11.52;;;;;;;-2.81;77.72;96965.47;5050872;28;20045;-72
2021/01/10 06:50:36;;;;;;;17.65;9.90;;;;;;;-2.81;77.64;96957.78;5045432;28;20040;-72
2021/01/10 06:53:13;;;;;;;16.15;9.73;;;;;;;-2.78;77.04;96960.09;5050048;28;20045;-72
2021/01/10 06:55:44;;;;;;;15.68;8.73;;;;;;;-2.77;77.02;96964.31;5046139;28;20053;-72
2021/01/10 06:58:11;;;;;;;17.13;9.40;;;;;;;-2.78;77.31;96962.66;5045261;28;20397;-72
2021/01/10 07:00:57;;;;;;;15.85;8.80;;;;;;;-2.74;77.03;96966.63;5044673;28;20052;-73
2021/01/10 07:03:25;;;;;;;19.48;10.27;;;;;;;-2.72;77.32;96964.75;5055665;28;20045;-75
2021/01/10 07:06:11;;;;;;;18.00;9.60;;;;;;;-2.66;76.95;96973.72;5051367;28;20382;-73
2021/01/10 07:08:53;;;;;;;19.73;9.18;;;;;;;-2.63;77.47;96970.88;5008847;28;20037;-72
2021/01/10 07:11:23;;;;;;;16.95;9.55;;;;;;;-2.60;77.15;96965.53;5033321;28;20045;-72
2021/01/10 07:13:51;;;;;;;16.55;8.90;;;;;;;-2.58;76.85;96968.78;5054350;28;20412;-73
2021/01/10 07:16:23;;;;;;;15.95;9.13;;;;;;;-2.59;76.91;96971.47;5027123;28;20393;-72
2021/01/10 07:18:50;;;;;;;19.05;9.68;;;;;;;-2.61;76.84;96974.16;5047030;28;20053;-73
2021/01/10 07:21:32;;;;;;;15.55;8.40;;;;;;;-2.59;76.62;96976.59;5055697;28;20424;-72
2021/01/10 07:24:13;;;;;;;15.10;8.95;;;;;;;-2.59;76.80;96969.72;5051724;28;20053;-72
2021/01/10 07:26:42;;;;;;;17.95;9.18;;;;;;;-2.56;77.34;96966.06;5055187;28;20048;-72
2021/01/10 07:29:43;;;;;;;15.35;8.90;;;;;;;-2.53;76.14;96965.84;5051981;28;20481;-72
2021/01/10 07:32:12;;;;;;;17.90;9.02;;;;;;;-2.54;76.65;96965.03;5053103;28;20055;-72
2021/01/10 07:34:44;;;;;;;15.82;8.65;;;;;;;-2.55;76.62;96968.53;5047884;28;20058;-72
2021/01/10 07:37:16;;;;;;;15.80;9.00;;;;;;;-2.51;76.46;96971.69;5049012;28;20041;-72
2021/01/10 07:40:07;;;;;;;16.95;8.13;;;;;;;-2.47;76.27;96971.31;5032100;28;20049;-72
2021/01/10 07:42:40;;;;;;;16.00;8.55;;;;;;;-2.41;76.62;96976.91;5055211;28;20405;-72
2021/01/10 07:45:17;;;;;;;14.43;8.35;;;;;;;-2.36;76.72;96967.06;5049730;28;21190;-73
2021/01/10 07:47:48;;;;;;;15.50;8.63;;;;;;;-2.32;76.64;96971.81;5034431;28;20049;-72
2021/01/10 07:50:14;;;;;;;12.50;8.02;;;;;;;-2.27;76.74;96974.00;5050813;28;20048;-72
2021/01/10 07:52:50;;;;;;;15.40;8.57;;;;;;;-2.23;75.96;96972.81;5052301;28;20500;-73
2021/01/10 07:55:18;;;;;;;15.40;8.60;;;;;;;-2.22;76.54;96979.59;5050839;28;20040;-72
2021/01/10 07:57:51;;;;;;;16.83;8.85;;;;;;;-2.19;76.65;96973.38;5048374;28;20049;-73
2021/01/10 08:00:50;;;;;;;16.70;8.77;;;;;;;-2.18;75.63;96982.72;5041717;28;20056;-73
2021/01/10 08:03:29;;;;;;;16.67;9.13;;;;;;;-2.15;76.09;96978.16;5043625;28;20045;-75
2021/01/10 08:05:56;;;;;;;15.00;8.02;;;;;;;-2.11;76.04;96986.44;5052416;28;20053;-72
2021/01/10 08:08:38;;;;;;;13.80;7.82;;;;;;;-2.07;75.24;96990.38;5031289;28;20055;-72
2021/01/10 08:11:05;;;;;;;17.67;9.13;;;;;;;-2.04;75.96;96979.84;5052490;28;20045;-72
2021/01/10 08:13:35;;;;;;;19.42;10.20;;;;;;;-2.01;75.91;96987.31;5049975;28;20044;-73
2021/01/10 08:16:05;;;;;;;17.80;10.50;;;;;;;-1.98;75.81;96991.38;5044923;28;20053;-72
2021/01/10 08:18:34;;;;;;;17.40;10.32;;;;;;;-1.96;75.88;96989.50;5047075;28;20037;-73
2021/01/10 08:21:02;;;;;;;16.55;10.73;;;;;;;-1.93;76.03;96984.09;5052385;28;20056;-72
2021/01/10 08:23:31;;;;;;;13.65;7.32;;;;;;;-1.89;75.40;96988.03;5009495;28;20040;-72
2021/01/10 08:26:13;;;;;;;14.57;7.93;;;;;;;-1.92;73.56;96988.31;5052285;28;20040;-72
2021/01/10 08:28:41;;;;;;;11.85;7.22;;;;;;;-1.90;75.18;96981.28;5051571;28;20044;-72
2021/01/10 08:31:10;;;;;;;14.00;8.57;;;;;;;-1.83;75.21;96987.53;5048680;28;20496;-73
2021/01/10 08:33:37;;;;;;;13.82;8.23;;;;;;;-1.76;75.19;96983.53;5047571;28;20045;-72
2021/01/10 08:36:11;;;;;;;13.57;7.75;;;;;;;-1.74;74.25;96983.38;5046915;28;20048;-73
2021/01/10 08:38:49;;;;;;;11.57;6.80;;;;;;;-1.74;72.80;96976.50;5047071;28;20044;-73
2021/01/10 08:41:23;;;;;;;14.10;8.18;;;;;;;-1.73;73.96;96978.13;5040423;28;20041;-73
2021/01/10 08:43:52;;;;;;;12.68;7.05;;;;;;;-1.68;74.42;96988.00;5047360;28;20053;-73
2021/01/10 08:46:18;;;;;;;9.98;6.28;;;;;;;-1.72;73.51;96986.66;5025584;28;20041;-72
2021/01/10 08:48:46;;;;;;;12.55;6.80;;;;;;;-1.78;73.70;96988.00;5054282;28;20047;-72
2021/01/10 08:51:33;;;;;;;10.70;6.32;;;;;;;-1.76;72.22;96986.09;5050396;28;20041;-72
2021/01/10 08:54:06;;;;;;;11.07;6.90;;;;;;;-1.70;73.70;96984.75;5049070;28;20068;-78
2021/01/10 08:56:33;;;;;;;13.02;6.95;;;;;;;-1.56;73.93;96981.03;5041341;28;20037;-73
2021/01/10 08:58:59;;;;;;;11.88;7.35;;;;;;;-1.54;73.24;96979.97;5033723;28;20048;-72
2021/01/10 09:01:27;;;;;;;12.13;6.88;;;;;;;-1.34;73.68;96980.06;5045312;28;20036;-73
2021/01/10 09:04:05;;;;;;;13.55;8.35;;;;;;;-1.20;73.16;96981.44;5051301;28;20056;-73
2021/01/10 09:06:41;;;;;;;17.27;7.93;;;;;;;-1.04;73.13;96979.19;5031277;28;20404;-73
2021/01/10 09:09:19;;;;;;;13.18;7.97;;;;;;;-0.94;72.64;96990.34;5029346;28;20048;-73
2021/01/10 09:11:53;;;;;;;11.68;7.68;;;;;;;-0.71;73.23;96979.81;5052691;28;20386;-73
2021/01/10 09:14:21;;;;;;;13.70;7.80;;;;;;;-0.49;72.78;96987.25;5047641;28;20055;-73
2021/01/10 09:16:49;;;;;;;13.05;7.57;;;;;;;-0.49;72.19;96983.88;5044465;28;20515;-73
2021/01/10 09:19:17;;;;;;;11.55;7.22;;;;;;;-0.60;71.64;96987.41;5054141;28;20094;-73
2021/01/10 09:21:48;;;;;;;12.88;7.85;;;;;;;-0.65;71.76;96984.41;5043140;28;20038;-73
2021/01/10 09:24:15;;;;;;;12.27;7.57;;;;;;;-0.62;72.38;96986.72;5051559;28;20036;-72
2021/01/10 09:26:42;;;;;;;12.45;7.45;;;;;;;-0.65;71.56;96989.56;5051392;28;20060;-73
2021/01/10 09:29:18;;;;;;;12.25;7.22;;;;;;;-0.53;69.28;96992.81;5055963;28;20394;-74
2021/01/10 09:31:47;;;;;;;13.00;8.43;;;;;;;-0.44;71.81;96986.88;5054838;28;20058;-73
2021/01/10 09:34:15;;;;;;;12.05;7.43;;;;;;;-0.19;71.50;96993.22;5045284;28;20034;-73
2021/01/10 09:36:42;;;;;;;16.02;8.32;;;;;;;-0.01;71.56;96993.34;5015824;28;20037;-73
2021/01/10 09:39:08;;;;;;;13.70;7.55;;;;;;;0.04;70.72;96990.34;5052025;28;20032;-73
2021/01/10 09:41:54;;;;;;;13.63;8.10;;;;;;;0.01;67.77;96986.28;5033920;28;20041;-73
2021/01/10 09:44:20;;;;;;;12.93;8.05;;;;;;;0.03;69.83;96991.31;5048375;28;20060;-73
2021/01/10 09:46:54;;;;;;;11.90;7.35;;;;;;;0.18;69.44;96983.00;5052726;28;20045;-73
2021/01/10 09:49:22;;;;;;;12.10;7.70;;;;;;;0.38;70.31;96990.69;5056760;28;20040;-73
2021/01/10 09:51:57;;;;;;;10.63;6.80;;;;;;;0.53;68.33;96986.72;5052241;28;20044;-73
2021/01/10 09:54:32;;;;;;;11.30;7.25;;;;;;;0.57;67.87;96976.91;5052356;28;20048;-73
2021/01/10 09:57:00;;;;;;;12.77;7.60;;;;;;;0.58;69.38;96983.69;5052318;28;20401;-73
2021/01/10 09:59:43;;;;;;;12.10;6.95;;;;;;;0.72;67.57;96982.44;5053026;28;20041;-73
2021/01/10 10:02:16;;;;;;;12.25;6.93;;;;;;;0.67;67.18;96980.25;5052261;28;20041;-73
2021/01/10 10:04:50;;;;;;;12.88;7.97;;;;;;;0.80;68.78;96985.13;5055898;28;20041;-73
2021/01/10 10:07:42;;;;;;;11.80;7.20;;;;;;;0.91;65.29;96968.63;5055611;28;20044;-73
2021/01/10 10:10:21;;;;;;;10.32;6.60;;;;;;;0.98;66.02;96969.66;5052300;28;20037;-74
2021/01/10 10:13:09;;;;;;;12.10;7.32;;;;;;;1.13;67.38;96981.09;5052741;28;20112;-73
2021/01/10 10:15:42;;;;;;;10.82;7.43;;;;;;;1.38;67.19;96987.34;5051329;28;20397;-73
2021/01/10 10:18:16;;;;;;;11.57;7.35;;;;;;;1.29;66.35;96979.66;5051581;28;20052;-73
2021/01/10 10:20:42;;;;;;;11.43;7.43;;;;;;;1.09;66.47;96984.97;5051778;28;20048;-72
2021/01/10 10:23:10;;;;;;;11.32;7.47;;;;;;;0.94;66.59;96978.63;5051510;28;20056;-73
2021/01/10 10:25:37;;;;;;;13.10;8.07;;;;;;;0.81;66.74;96978.97;5051479;28;20048;-73
2021/01/10 10:28:05;;;;;;;12.65;7.80;;;;;;;0.83;67.19;96977.06;5052246;28;20057;-73
2021/01/10 10:30:32;;;;;;;10.80;6.88;;;;;;;0.74;67.11;96977.94;5051765;28;20120;-73
2021/01/10 10:32:59;;;;;;;12.45;7.43;;;;;;;0.87;67.18;96975.03;5053508;28;20029;-73
2021/01/10 10:35:26;;;;;;;10.65;7.18;;;;;;;0.88;65.60;96977.44;5052603;28;20029;-73
2021/01/10 10:37:52;;;;;;;11.82;7.03;;;;;;;0.68;66.04;96970.75;5052171;28;20421;-73
2021/01/10 10:40:19;;;;;;;11.25;7.85;;;;;;;0.53;66.27;96976.38;5053189;28;20044;-73
2021/01/10 10:42:46;;;;;;;12.13;7.45;;;;;;;0.67;66.54;96974.28;5038250;28;20041;-73
2021/01/10 10:45:13;;;;;;;14.68;7.75;;;;;;;0.71;66.62;96957.56;5039083;28;20040;-73
2021/01/10 10:47:39;;;;;;;10.35;6.65;;;;;;;0.73;66.27;96965.97;5055807;28;20045;-73
2021/01/10 10:50:07;;;;;;;11.93;7.43;;;;;;;0.75;66.28;96971.81;5056737;28;20044;-73
2021/01/10 10:52:34;;;;;;;10.38;6.78;;;;;;;0.63;65.52;96966.03;5056961;28;20048;-73
2021/01/10 10:55:01;;;;;;;19.90;7.50;;;;;;;0.58;64.78;96958.69;5056226;28;20043;-73
2021/01/10 10:57:28;;;;;;;12.65;6.90;;;;;;;0.70;65.64;96956.75;5037662;28;20404;-73
2021/01/10 10:59:54;;;;;;;14.23;7.05;;;;;;;1.05;65.75;96959.53;5054653;28;20056;-73
2021/01/10 11:02:20;;;;;;;9.45;5.78;;;;;;;1.26;61.50;96930.84;5055204;28;20060;-73
2021/01/10 11:04:47;;;;;;;9.88;6.70;;;;;;;1.27;64.24;96948.81;5055301;28;20401;-73
2021/01/10 11:07:15;;;;;;;9.60;6.15;;;;;;;1.44;64.08;96946.38;5054540;28;20049;-75
2021/01/10 11:09:42;;;;;;;13.18;6.97;;;;;;;1.49;64.02;96939.81;5037604;28;20044;-73
2021/01/10 11:12:10;;;;;;;10.23;6.60;;;;;;;1.56;63.93;96934.84;5055919;28;20397;-73
2021/01/10 11:14:37;;;;;;;10.63;6.68;;;;;;;1.57;63.31;96929.50;5054991;28;20064;-74
2021/01/10 11:17:15;;;;;;;12.38;6.90;;;;;;;1.65;62.17;96921.03;5037469;28;20515;-74
2021/01/10 11:19:41;;;;;;;9.68;5.78;;;;;;;1.63;62.38;96922.94;5037964;28;20049;-74
2021/01/10 11:22:08;;;;;;;8.45;5.97;;;;;;;1.72;62.54;96919.47;5055502;28;20048;-74
2021/01/10 11:24:35;;;;;;;8.10;5.50;;;;;;;1.71;62.01;96912.66;5037249;28;20040;-74
2021/01/10 11:27:03;;;;;;;9.23;5.97;;;;;;;1.65;61.85;96915.84;5055311;28;20037;-74
2021/01/10 11:29:29;;;;;;;9.73;6.43;;;;;;;1.58;61.42;96907.88;5036612;28;20048;-75
2021/01/10 11:31:56;;;;;;;10.68;6.50;;;;;;;1.72;61.87;96916.06;5054412;28;20477;-74
2021/01/10 11:34:22;;;;;;;9.30;6.03;;;;;;;1.82;61.94;96912.41;5054501;28;20409;-75